createdAt,value
2019-02-19T00:01:36.488Z,128.70
2019-02-19T00:03:44.058Z,143.33
2019-02-19T00:05:51.751Z,162.73
2019-02-19T00:07:59.676Z,151.93
2019-02-19T00:10:07.890Z,158.57
2019-02-19T00:12:15.544Z,132.07
2019-02-19T00:14:23.264Z,129.03
2019-02-19T00:16:30.961Z,131.97
2019-02-19T00:18:38.669Z,137.40
2019-02-19T00:20:46.375Z,129.77
2019-02-19T00:22:54.150Z,144.57
2019-02-19T00:25:01.857Z,132.70
2019-02-19T00:27:09.804Z,145.13
2019-02-19T00:29:17.784Z,138.83
2019-02-19T00:31:25.733Z,139.23
2019-02-19T00:33:33.314Z,133.17
2019-02-19T00:35:41.132Z,137.83
2019-02-19T00:37:49.408Z,143.90
2019-02-19T00:39:57.097Z,191.60
2019-02-19T00:42:04.804Z,152.87
2019-02-19T00:44:12.708Z,189.83
2019-02-19T00:46:20.341Z,141.63
2019-02-19T00:48:28.087Z,180.87
2019-02-19T00:50:35.751Z,174.30
2019-02-19T00:52:43.588Z,182.50
2019-02-19T00:54:51.325Z,179.53
2019-02-19T00:56:59.158Z,157.00
2019-02-19T00:59:06.779Z,153.17
2019-02-19T01:01:17.630Z,132.07
2019-02-19T01:03:25.421Z,123.50
2019-02-19T01:05:33.164Z,124.00
2019-02-19T01:07:40.954Z,126.30
2019-02-19T01:09:48.633Z,125.63
2019-02-19T01:11:56.318Z,116.30
2019-02-19T01:14:04.200Z,127.23
2019-02-19T01:16:12.081Z,122.70
2019-02-19T01:18:19.689Z,118.60
2019-02-19T01:20:27.479Z,132.80
2019-02-19T01:22:35.222Z,133.47
2019-02-19T01:24:42.836Z,120.77
2019-02-19T01:26:50.267Z,128.20
2019-02-19T01:28:58.413Z,120.57
2019-02-19T01:31:06.166Z,130.73
2019-02-19T01:33:13.922Z,123.07
2019-02-19T01:35:21.561Z,135.90
2019-02-19T01:37:29.157Z,131.43
2019-02-19T01:39:36.979Z,124.20
2019-02-19T01:41:44.973Z,127.57
2019-02-19T01:43:52.739Z,121.63
2019-02-19T01:46:00.444Z,120.23
2019-02-19T01:48:08.552Z,121.53
2019-02-19T01:50:16.310Z,122.53
2019-02-19T01:52:23.931Z,130.90
2019-02-19T01:54:31.672Z,132.13
2019-02-19T01:56:39.324Z,119.20
2019-02-19T01:58:46.901Z,114.03
2019-02-19T02:00:54.763Z,134.83
2019-02-19T02:03:02.183Z,118.13
2019-02-19T02:05:09.875Z,115.70
2019-02-19T02:07:17.655Z,130.83
2019-02-19T02:09:25.571Z,117.70
2019-02-19T02:11:33.118Z,121.83
2019-02-19T02:13:40.845Z,118.07
2019-02-19T02:15:48.638Z,123.70
2019-02-19T02:17:56.427Z,118.60
2019-02-19T02:20:04.036Z,123.67
2019-02-19T02:22:11.941Z,128.37
2019-02-19T02:24:19.525Z,127.40
2019-02-19T02:26:27.321Z,129.53
2019-02-19T02:28:35.056Z,121.90
2019-02-19T02:30:42.517Z,129.70
2019-02-19T02:32:50.177Z,138.17
2019-02-19T02:34:57.843Z,131.83
2019-02-19T02:37:05.596Z,127.73
2019-02-19T02:39:13.369Z,131.03
2019-02-19T02:41:21.136Z,136.67
2019-02-19T02:43:28.760Z,133.77
2019-02-19T02:45:36.547Z,134.90
2019-02-19T02:47:44.365Z,129.37
2019-02-19T02:49:52.116Z,121.50
2019-02-19T02:51:59.935Z,129.00
2019-02-19T02:54:07.695Z,122.17
2019-02-19T02:56:15.407Z,123.67
2019-02-19T02:58:22.951Z,131.73
2019-02-19T03:00:30.769Z,137.97
2019-02-19T03:02:38.607Z,129.83
2019-02-19T03:04:46.292Z,125.40
2019-02-19T03:07:00.123Z,122.17
2019-02-19T03:09:08.052Z,133.73
2019-02-19T03:11:15.807Z,130.83
2019-02-19T03:13:23.480Z,124.63
2019-02-19T03:15:31.082Z,130.40
2019-02-19T03:17:38.873Z,133.20
2019-02-19T03:19:46.561Z,131.03
2019-02-19T03:21:54.211Z,136.00
2019-02-19T03:24:01.906Z,131.30
2019-02-19T03:26:09.887Z,129.80
2019-02-19T03:28:17.514Z,124.73
2019-02-19T03:30:25.428Z,122.30
2019-02-19T03:32:33.242Z,137.63
2019-02-19T03:34:40.797Z,139.00
2019-02-19T03:36:48.517Z,128.93
2019-02-19T03:38:56.220Z,139.73
2019-02-19T03:41:04.691Z,134.80
2019-02-19T03:43:12.410Z,141.40
2019-02-19T03:45:20.317Z,150.27
2019-02-19T03:47:28.068Z,141.53
2019-02-19T03:49:35.799Z,136.60
2019-02-19T03:51:43.478Z,142.50
2019-02-19T03:53:51.208Z,138.80
2019-02-19T03:55:58.902Z,138.90
2019-02-19T03:58:06.754Z,141.30
2019-02-19T04:00:14.588Z,142.70
2019-02-19T04:02:22.264Z,135.40
2019-02-19T04:04:30.222Z,150.73
2019-02-19T04:06:38.037Z,140.53
2019-02-19T04:08:45.791Z,142.37
2019-02-19T04:10:53.598Z,148.27
2019-02-19T04:13:01.422Z,150.87
2019-02-19T04:15:09.367Z,152.17
2019-02-19T04:17:17.224Z,147.73
2019-02-19T04:19:24.977Z,141.40
2019-02-19T04:21:32.688Z,137.93
2019-02-19T04:23:40.502Z,144.47
2019-02-19T04:25:48.246Z,149.60
2019-02-19T04:27:56.049Z,144.90
2019-02-19T04:30:03.705Z,144.17
2019-02-19T04:32:11.512Z,143.07
2019-02-19T04:34:19.227Z,143.53
2019-02-19T04:36:26.997Z,143.03
2019-02-19T04:38:34.693Z,155.57
2019-02-19T04:40:42.443Z,145.00
2019-02-19T04:42:50.153Z,135.60
2019-02-19T04:44:57.641Z,140.03
2019-02-19T04:47:05.144Z,135.73
2019-02-19T04:49:12.844Z,150.53
2019-02-19T04:51:20.694Z,142.30
2019-02-19T04:53:28.511Z,145.50
2019-02-19T04:55:36.366Z,153.17
2019-02-19T04:57:43.976Z,157.10
2019-02-19T04:59:51.483Z,142.30
2019-02-19T05:01:59.175Z,152.93
2019-02-19T05:04:06.727Z,154.63
2019-02-19T05:06:14.436Z,143.53
2019-02-19T05:08:22.225Z,155.30
2019-02-19T05:10:29.852Z,158.23
2019-02-19T05:12:37.646Z,163.73
2019-02-19T05:14:45.788Z,160.00
2019-02-19T05:16:53.431Z,150.37
2019-02-19T05:19:01.181Z,149.27
2019-02-19T05:21:08.873Z,151.87
2019-02-19T05:23:16.675Z,147.57
2019-02-19T05:25:24.498Z,168.23
2019-02-19T05:27:32.264Z,167.00
2019-02-19T05:29:39.935Z,165.13
2019-02-19T05:31:47.609Z,156.10
2019-02-19T05:33:55.320Z,145.83
2019-02-19T05:36:03.183Z,151.33
2019-02-19T05:38:11.001Z,158.70
2019-02-19T05:40:18.757Z,172.70
2019-02-19T05:42:26.457Z,163.30
2019-02-19T05:44:34.202Z,166.57
2019-02-19T05:46:49.721Z,176.60
2019-02-19T05:48:52.426Z,166.40
2019-02-19T05:51:00.162Z,167.63
2019-02-19T05:53:08.061Z,168.80
2019-02-19T05:55:15.782Z,161.10
2019-02-19T05:57:23.609Z,164.53
2019-02-19T05:59:32.583Z,163.97
2019-02-19T06:01:40.584Z,172.03
2019-02-19T06:03:48.553Z,164.87
2019-02-19T06:05:56.594Z,156.43
2019-02-19T06:08:04.420Z,154.03
2019-02-19T06:10:14.271Z,155.93
2019-02-19T06:12:22.194Z,167.63
2019-02-19T06:14:29.856Z,160.30
2019-02-19T06:16:37.607Z,153.33
2019-02-19T06:18:45.095Z,139.37
2019-02-19T06:20:52.854Z,144.07
2019-02-19T06:23:00.542Z,153.23
2019-02-19T06:25:09.507Z,151.70
2019-02-19T06:27:17.207Z,147.33
2019-02-19T06:29:25.014Z,152.23
2019-02-19T06:31:32.856Z,139.87
2019-02-19T06:33:40.605Z,146.00
2019-02-19T06:35:48.258Z,142.60
2019-02-19T06:37:56.085Z,141.90
2019-02-19T06:40:03.727Z,140.27
2019-02-19T06:42:11.443Z,138.40
2019-02-19T06:44:19.038Z,134.60
2019-02-19T06:46:26.787Z,135.77
2019-02-19T06:48:34.546Z,131.33
2019-02-19T06:50:42.324Z,129.87
2019-02-19T06:52:50.102Z,133.20
2019-02-19T06:54:57.813Z,127.37
2019-02-19T06:57:05.592Z,126.43
2019-02-19T06:59:13.296Z,140.23
2019-02-19T07:01:30.230Z,130.93
2019-02-19T07:03:48.379Z,130.33
2019-02-19T07:05:55.948Z,126.70
2019-02-19T07:08:03.674Z,131.73
2019-02-19T07:10:11.381Z,125.07
2019-02-19T07:12:19.134Z,128.77
2019-02-19T07:14:26.887Z,124.43
2019-02-19T07:16:34.724Z,126.00
2019-02-19T07:18:42.517Z,133.50
2019-02-19T07:20:50.425Z,147.40
2019-02-19T07:22:58.269Z,152.47
2019-02-19T07:25:06.424Z,148.77
2019-02-19T07:27:14.116Z,163.23
2019-02-19T07:29:21.862Z,152.87
2019-02-19T07:31:29.594Z,145.03
2019-02-19T07:33:37.143Z,144.43
2019-02-19T07:35:44.791Z,123.10
2019-02-19T07:37:52.472Z,119.23
2019-02-19T07:40:00.094Z,102.67
2019-02-19T07:42:08.058Z,103.87
2019-02-19T07:44:15.851Z,97.70
2019-02-19T07:46:25.271Z,109.50
2019-02-19T07:48:33.173Z,89.40
2019-02-19T07:50:40.991Z,81.37
2019-02-19T07:52:48.843Z,80.90
2019-02-19T07:54:56.794Z,84.80
2019-02-19T07:57:04.534Z,85.83
2019-02-19T07:59:12.428Z,75.17
2019-02-19T08:01:20.349Z,74.57
2019-02-19T08:03:28.165Z,77.50
2019-02-19T08:05:36.213Z,80.30
2019-02-19T08:07:43.988Z,81.70
2019-02-19T08:09:51.720Z,77.50
2019-02-19T08:11:59.596Z,82.63
2019-02-19T08:14:07.440Z,77.57
2019-02-19T08:16:15.519Z,71.47
2019-02-19T08:18:25.132Z,73.03
2019-02-19T08:20:34.215Z,69.37
2019-02-19T08:22:42.281Z,73.27
2019-02-19T08:24:50.105Z,74.77
2019-02-19T08:26:57.876Z,64.83
2019-02-19T08:29:13.463Z,69.13
2019-02-19T08:31:45.075Z,67.20
2019-02-19T08:33:52.919Z,77.77
2019-02-19T08:36:00.595Z,74.73
2019-02-19T08:38:08.259Z,61.17
2019-02-19T08:40:16.055Z,69.13
2019-02-19T08:42:23.835Z,65.97
2019-02-19T08:44:31.637Z,79.03
2019-02-19T08:46:39.603Z,68.57
2019-02-19T08:48:47.411Z,62.37
2019-02-19T08:50:55.307Z,59.40
2019-02-19T08:53:02.959Z,60.97
2019-02-19T08:55:10.582Z,61.23
2019-02-19T08:57:19.666Z,56.50
2019-02-19T08:59:27.579Z,57.80
2019-02-19T09:01:35.028Z,61.53
2019-02-19T09:03:42.905Z,61.23
2019-02-19T09:05:50.671Z,58.40
2019-02-19T09:07:58.257Z,76.17
2019-02-19T09:10:07.237Z,59.57
2019-02-19T09:12:14.972Z,57.73
2019-02-19T09:14:22.774Z,63.27
2019-02-19T09:16:30.389Z,63.43
2019-02-19T09:18:38.082Z,57.73
2019-02-19T09:20:45.825Z,62.47
2019-02-19T09:22:53.704Z,48.37
2019-02-19T09:25:01.569Z,54.40
2019-02-19T09:27:09.512Z,55.43
2019-02-19T09:29:17.395Z,54.20
2019-02-19T09:31:25.167Z,60.10
2019-02-19T09:33:33.037Z,59.87
2019-02-19T09:35:40.760Z,52.03
2019-02-19T09:37:48.533Z,53.10
2019-02-19T09:39:56.268Z,60.17
2019-02-19T09:42:03.788Z,54.53
2019-02-19T09:44:11.714Z,54.53
2019-02-19T09:46:19.370Z,58.43
2019-02-19T09:48:26.936Z,76.20
2019-02-19T09:50:34.677Z,61.33
2019-02-19T09:52:42.366Z,50.50
2019-02-19T09:54:50.212Z,58.07
2019-02-19T09:56:57.976Z,55.33
2019-02-19T09:59:06.014Z,49.37
2019-02-19T10:01:14.111Z,51.97
2019-02-19T10:03:21.923Z,55.40
2019-02-19T10:05:29.708Z,52.37
2019-02-19T10:07:38.383Z,56.47
2019-02-19T10:09:46.480Z,50.20
2019-02-19T10:11:54.407Z,49.73
2019-02-19T10:14:02.535Z,47.13
2019-02-19T10:16:11.746Z,53.30
2019-02-19T10:18:19.652Z,45.57
2019-02-19T10:20:27.493Z,42.47
2019-02-19T10:22:35.362Z,47.23
2019-02-19T10:24:43.160Z,42.83
2019-02-19T10:26:50.882Z,41.97
2019-02-19T10:28:58.755Z,42.53
2019-02-19T10:31:06.988Z,44.70
2019-02-19T10:33:14.788Z,43.00
2019-02-19T10:35:22.527Z,44.83
2019-02-19T10:37:30.288Z,45.53
2019-02-19T10:39:38.115Z,46.93
2019-02-19T10:41:45.853Z,40.87
2019-02-19T10:43:54.912Z,41.80
2019-02-19T10:46:02.797Z,40.50
2019-02-19T10:48:18.589Z,41.90
2019-02-19T10:50:20.153Z,38.80
2019-02-19T10:52:28.539Z,38.63
2019-02-19T10:54:37.141Z,40.40
2019-02-19T10:56:45.080Z,40.20
2019-02-19T10:58:52.936Z,42.17
2019-02-19T11:01:00.845Z,37.47
2019-02-19T11:03:08.627Z,47.60
2019-02-19T11:05:17.143Z,43.17
2019-02-19T11:07:24.951Z,79.97
2019-02-19T11:09:32.805Z,59.67
2019-02-19T11:11:40.578Z,38.03
2019-02-19T11:13:48.475Z,57.30
2019-02-19T11:15:56.272Z,58.70
2019-02-19T11:18:03.968Z,43.50
2019-02-19T11:20:13.111Z,46.93
2019-02-19T11:22:21.062Z,59.97
2019-02-19T11:24:28.889Z,44.30
2019-02-19T11:26:36.420Z,43.90
2019-02-19T11:28:44.375Z,39.27
2019-02-19T11:30:52.210Z,43.27
2019-02-19T11:33:00.067Z,38.40
2019-02-19T11:35:08.811Z,55.13
2019-02-19T11:37:16.506Z,39.90
2019-02-19T11:39:24.451Z,41.40
2019-02-19T11:41:32.255Z,42.37
2019-02-19T11:43:40.099Z,40.07
2019-02-19T11:45:47.804Z,44.33
2019-02-19T11:47:55.386Z,36.73
2019-02-19T11:50:03.166Z,36.93
2019-02-19T11:52:10.976Z,37.87
2019-02-19T11:54:18.574Z,41.43
2019-02-19T11:56:26.279Z,38.10
2019-02-19T11:58:33.818Z,39.03
2019-02-19T12:00:42.460Z,41.20
2019-02-19T12:02:50.410Z,34.07
2019-02-19T12:04:58.669Z,35.67
2019-02-19T12:07:06.453Z,38.93
2019-02-19T12:09:32.622Z,41.10
2019-02-19T12:11:40.253Z,33.70
2019-02-19T12:13:47.924Z,42.87
2019-02-19T12:15:55.592Z,39.83
2019-02-19T12:18:03.379Z,58.07
2019-02-19T12:20:11.709Z,35.83
2019-02-19T12:22:19.411Z,44.27
2019-02-19T12:24:26.976Z,47.87
2019-02-19T12:26:34.701Z,40.13
2019-02-19T12:28:42.552Z,39.77
2019-02-19T12:30:50.323Z,38.37
2019-02-19T12:32:58.041Z,51.33
2019-02-19T12:35:06.134Z,46.77
2019-02-19T12:37:13.897Z,35.40
2019-02-19T12:39:21.474Z,46.57
2019-02-19T12:41:29.264Z,37.57
2019-02-19T12:43:37.152Z,39.57
2019-02-19T12:45:44.907Z,53.33
2019-02-19T12:47:52.671Z,41.17
2019-02-19T12:50:00.392Z,36.60
2019-02-19T12:52:08.046Z,45.40
2019-02-19T12:54:15.772Z,34.80
2019-02-19T12:56:23.954Z,36.83
2019-02-19T12:58:31.606Z,41.07
2019-02-19T13:00:39.759Z,39.97
2019-02-19T13:02:47.620Z,38.37
2019-02-19T13:04:55.386Z,45.93
2019-02-19T13:07:03.214Z,41.77
2019-02-19T13:09:11.638Z,40.03
2019-02-19T13:11:19.474Z,43.77
2019-02-19T13:13:27.394Z,36.07
2019-02-19T13:15:35.170Z,41.57
2019-02-19T13:17:43.082Z,36.43
2019-02-19T13:19:50.869Z,41.27
2019-02-19T13:21:58.548Z,38.30
2019-02-19T13:24:06.872Z,41.37
2019-02-19T13:26:15.828Z,31.43
2019-02-19T13:28:23.561Z,39.37
2019-02-19T13:30:31.429Z,35.67
2019-02-19T13:32:39.814Z,45.87
2019-02-19T13:34:47.720Z,43.13
2019-02-19T13:36:55.482Z,42.60
2019-02-19T13:39:03.660Z,39.70
2019-02-19T13:41:11.391Z,37.97
2019-02-19T13:43:19.224Z,41.53
2019-02-19T13:45:27.051Z,55.37
2019-02-19T13:47:34.833Z,45.80
2019-02-19T13:49:42.670Z,37.20
2019-02-19T13:51:50.669Z,42.00
2019-02-19T13:54:17.515Z,39.90
2019-02-19T13:56:25.429Z,38.30
2019-02-19T13:58:33.166Z,36.57
2019-02-19T14:00:54.915Z,44.90
2019-02-19T14:03:02.610Z,42.30
2019-02-19T14:05:12.210Z,39.97
2019-02-19T14:07:20.164Z,36.60
2019-02-19T14:09:28.099Z,40.13
2019-02-19T14:11:44.528Z,46.20
2019-02-19T14:14:24.658Z,45.20
2019-02-19T14:16:41.461Z,41.57
2019-02-19T14:19:06.463Z,42.80
2019-02-19T14:21:27.562Z,62.73
2019-02-19T14:24:00.120Z,43.00
2019-02-19T14:26:34.163Z,41.23
2019-02-19T14:29:09.302Z,40.80
2019-02-19T14:31:57.403Z,42.70
2019-02-19T14:34:29.234Z,45.70
2019-02-19T14:36:58.498Z,49.27
2019-02-19T14:39:28.002Z,48.37
2019-02-19T14:42:03.495Z,48.93
2019-02-19T14:44:37.338Z,50.70
2019-02-19T14:47:00.896Z,42.90
2019-02-19T14:49:47.358Z,51.90
2019-02-19T14:52:12.453Z,43.97
2019-02-19T14:54:41.997Z,37.57
2019-02-19T14:56:59.233Z,36.97
2019-02-19T14:59:17.896Z,36.53
2019-02-19T15:02:02.672Z,35.33
2019-02-19T15:04:33.668Z,39.77
2019-02-19T15:06:56.219Z,43.60
2019-02-19T15:09:25.323Z,42.53
2019-02-19T15:11:52.020Z,41.53
2019-02-19T15:14:23.980Z,42.93
2019-02-19T15:17:05.345Z,42.83
2019-02-19T15:19:23.273Z,45.27
2019-02-19T15:21:57.009Z,65.33
2019-02-19T15:24:22.180Z,53.40
2019-02-19T15:26:43.248Z,42.23
2019-02-19T15:29:12.904Z,68.53
2019-02-19T15:31:54.591Z,69.27
2019-02-19T15:34:23.635Z,92.10
2019-02-19T15:36:42.990Z,79.97
2019-02-19T15:39:11.119Z,129.27
2019-02-19T15:41:44.721Z,84.27
2019-02-19T15:44:03.715Z,112.93
2019-02-19T15:46:39.414Z,104.47
2019-02-19T15:49:02.456Z,69.47
2019-02-19T15:51:43.564Z,53.87
2019-02-19T15:54:09.124Z,50.70
2019-02-19T15:56:34.095Z,53.77
2019-02-19T15:59:06.835Z,48.20
2019-02-19T16:01:39.812Z,109.77
2019-02-19T16:04:15.640Z,207.97
2019-02-19T16:07:00.534Z,139.30
2019-02-19T16:09:32.440Z,71.47
2019-02-19T16:12:01.658Z,72.50
2019-02-19T16:14:28.117Z,157.23
2019-02-19T16:17:06.911Z,76.43
2019-02-19T16:19:22.876Z,84.73
2019-02-19T16:21:58.525Z,118.77
2019-02-19T16:24:37.306Z,262.37
2019-02-19T16:27:07.020Z,288.60
2019-02-19T16:29:32.202Z,246.00
2019-02-19T16:31:57.566Z,245.97
2019-02-19T16:34:17.834Z,199.63
2019-02-19T16:36:36.294Z,194.17
2019-02-19T16:39:05.731Z,244.33
2019-02-19T16:41:22.049Z,288.50
2019-02-19T16:43:54.363Z,233.23
2019-02-19T16:46:09.890Z,258.57
2019-02-19T16:48:36.526Z,248.73
2019-02-19T16:50:57.526Z,246.50
2019-02-19T16:53:33.221Z,236.83
2019-02-19T16:56:05.894Z,168.37
2019-02-19T16:58:38.549Z,85.07
2019-02-19T17:00:55.948Z,102.90
2019-02-19T17:03:28.652Z,102.40
2019-02-19T17:05:55.093Z,101.73
2019-02-19T17:08:32.711Z,84.30
2019-02-19T17:11:08.306Z,81.30
2019-02-19T17:13:23.691Z,73.30
2019-02-19T17:15:51.774Z,73.83
2019-02-19T17:18:16.977Z,73.00
2019-02-19T17:20:52.755Z,81.90
2019-02-19T17:23:06.522Z,92.90
2019-02-19T17:25:21.220Z,93.23
2019-02-19T17:27:38.007Z,70.33
2019-02-19T17:29:56.883Z,76.00
2019-02-19T17:32:12.917Z,68.30
2019-02-19T17:34:54.957Z,63.50
2019-02-19T17:37:17.591Z,79.50
2019-02-19T17:39:34.498Z,70.00
2019-02-19T17:41:50.817Z,84.93
2019-02-19T17:44:17.432Z,76.53
2019-02-19T17:46:42.669Z,63.80
2019-02-19T17:49:16.706Z,63.13
2019-02-19T17:51:46.486Z,62.87
2019-02-19T17:54:16.059Z,60.50
2019-02-19T17:56:41.180Z,60.67
2019-02-19T17:58:58.504Z,62.40
2019-02-19T18:01:34.359Z,59.33
2019-02-19T18:04:00.121Z,61.93
2019-02-19T18:06:41.994Z,61.10
2019-02-19T18:09:08.823Z,57.50
2019-02-19T18:11:38.919Z,60.73
2019-02-19T18:14:16.811Z,59.37
2019-02-19T18:16:50.800Z,53.20
2019-02-19T18:18:58.552Z,56.60
2019-02-19T18:21:06.299Z,56.40
2019-02-19T18:23:14.157Z,61.30
2019-02-19T18:25:22.157Z,55.53
2019-02-19T18:27:30.157Z,56.97
2019-02-19T18:29:38.057Z,58.37
2019-02-19T18:31:46.364Z,56.83
2019-02-19T18:33:54.735Z,67.10
2019-02-19T18:36:02.833Z,61.67
2019-02-19T18:38:10.613Z,77.70
2019-02-19T18:40:18.612Z,72.93
2019-02-19T18:42:26.806Z,73.80
2019-02-19T18:44:34.763Z,69.93
2019-02-19T18:46:42.562Z,59.23
2019-02-19T18:48:52.016Z,81.43
2019-02-19T18:51:00.050Z,75.17
2019-02-19T18:53:08.038Z,93.03
2019-02-19T18:55:16.757Z,92.53
2019-02-19T18:57:25.022Z,85.37
2019-02-19T18:59:32.774Z,66.13
2019-02-19T19:01:40.989Z,73.43
2019-02-19T19:03:50.315Z,78.07
2019-02-19T19:05:58.484Z,61.17
2019-02-19T19:08:06.378Z,65.87
2019-02-19T19:10:14.981Z,72.77
2019-02-19T19:12:22.833Z,66.10
2019-02-19T19:14:30.804Z,64.37
2019-02-19T19:16:38.800Z,76.03
2019-02-19T19:18:48.092Z,65.80
2019-02-19T19:20:56.177Z,67.33
2019-02-19T19:23:04.902Z,76.37
2019-02-19T19:25:12.535Z,71.03
2019-02-19T19:27:20.548Z,68.37
2019-02-19T19:29:28.774Z,68.37
2019-02-19T19:31:36.868Z,68.00
2019-02-19T19:33:45.018Z,70.47
2019-02-19T19:35:52.977Z,76.53
2019-02-19T19:38:01.610Z,62.97
2019-02-19T19:40:09.727Z,68.23
2019-02-19T19:42:17.650Z,65.23
2019-02-19T19:44:25.345Z,68.30
2019-02-19T19:46:33.341Z,65.77
2019-02-19T19:48:41.220Z,72.17
2019-02-19T19:50:49.438Z,57.80
2019-02-19T19:52:57.937Z,62.80
2019-02-19T19:55:06.389Z,64.20
2019-02-19T19:57:14.333Z,57.23
2019-02-19T19:59:23.458Z,64.53
2019-02-19T20:01:32.744Z,58.57
2019-02-19T20:03:41.962Z,58.40
2019-02-19T20:05:51.489Z,59.13
2019-02-19T20:08:00.128Z,58.27
2019-02-19T20:10:09.912Z,54.30
2019-02-19T20:12:18.898Z,56.53
2019-02-19T20:14:28.612Z,57.40
2019-02-19T20:16:37.775Z,62.30
2019-02-19T20:18:47.661Z,58.00
2019-02-19T20:20:56.951Z,58.77
2019-02-19T20:23:06.416Z,59.93
2019-02-19T20:25:15.390Z,56.57
2019-02-19T20:27:24.596Z,63.63
2019-02-19T20:29:34.562Z,62.20
2019-02-19T20:31:44.483Z,65.53
2019-02-19T20:33:53.909Z,64.93
2019-02-19T20:36:03.206Z,60.53
2019-02-19T20:38:13.003Z,58.30
2019-02-19T20:40:22.802Z,55.37
2019-02-19T20:42:32.552Z,57.63
2019-02-19T20:44:41.802Z,62.43
2019-02-19T20:46:50.687Z,52.53
2019-02-19T20:48:58.945Z,61.97
2019-02-19T20:51:08.331Z,57.43
2019-02-19T20:53:17.568Z,55.33
2019-02-19T20:55:36.542Z,55.93
2019-02-19T20:57:38.128Z,49.87
2019-02-19T20:59:47.557Z,54.83
2019-02-19T21:01:56.902Z,60.70
2019-02-19T21:04:06.316Z,54.60
2019-02-19T21:06:16.209Z,54.10
2019-02-19T21:08:25.504Z,50.70
2019-02-19T21:10:34.941Z,58.03
2019-02-19T21:12:43.161Z,53.07
2019-02-19T21:14:52.569Z,51.73
2019-02-19T21:17:01.593Z,58.70
2019-02-19T21:19:11.337Z,52.60
2019-02-19T21:21:21.238Z,49.63
2019-02-19T21:23:31.355Z,51.87
2019-02-19T21:25:41.656Z,50.80
2019-02-19T21:27:51.735Z,47.63
2019-02-19T21:30:01.332Z,50.53
2019-02-19T21:32:11.297Z,43.93
2019-02-19T21:34:21.727Z,51.43
2019-02-19T21:36:31.655Z,48.57
2019-02-19T21:38:42.087Z,47.57
2019-02-19T21:40:52.547Z,48.33
2019-02-19T21:43:02.681Z,42.67
2019-02-19T21:45:13.580Z,45.93
2019-02-19T21:47:23.473Z,46.63
2019-02-19T21:49:33.359Z,48.10
2019-02-19T21:51:43.368Z,45.13
2019-02-19T21:53:53.622Z,51.23
2019-02-19T21:56:03.245Z,44.60
2019-02-19T21:58:13.014Z,46.03
2019-02-19T22:00:22.791Z,44.87
2019-02-19T22:02:32.470Z,43.23
2019-02-19T22:04:42.049Z,43.43
2019-02-19T22:06:51.986Z,39.93
2019-02-19T22:09:01.816Z,43.20
2019-02-19T22:11:11.810Z,44.10
2019-02-19T22:13:21.780Z,43.50
2019-02-19T22:15:31.371Z,41.97
2019-02-19T22:17:40.692Z,38.00
2019-02-19T22:19:50.053Z,39.47
2019-02-19T22:22:08.018Z,40.10
2019-02-19T22:24:35.834Z,39.53
2019-02-19T22:26:45.830Z,43.47
2019-02-19T22:28:55.317Z,41.93
2019-02-19T22:31:04.487Z,45.47
2019-02-19T22:33:13.630Z,39.83
2019-02-19T22:35:22.936Z,44.33
2019-02-19T22:37:31.900Z,47.30
2019-02-19T22:39:40.873Z,44.17
2019-02-19T22:41:49.680Z,52.23
2019-02-19T22:43:58.361Z,52.33
2019-02-19T22:46:06.817Z,46.73
2019-02-19T22:48:15.720Z,53.77
2019-02-19T22:50:24.408Z,58.03
2019-02-19T22:52:32.726Z,63.80
2019-02-19T22:55:05.265Z,58.43
2019-02-19T22:57:13.220Z,52.50
2019-02-19T22:59:21.601Z,55.20
2019-02-19T23:01:40.140Z,58.47
2019-02-19T23:03:48.067Z,55.40
2019-02-19T23:05:55.976Z,54.60
2019-02-19T23:08:04.081Z,57.00
2019-02-19T23:10:12.006Z,52.87
2019-02-19T23:12:19.643Z,52.87
2019-02-19T23:14:27.722Z,53.07
2019-02-19T23:16:35.686Z,52.97
2019-02-19T23:18:43.600Z,46.77
2019-02-19T23:20:51.576Z,53.57
2019-02-19T23:22:59.332Z,49.17
2019-02-19T23:25:07.609Z,45.60
2019-02-19T23:27:16.165Z,47.90
2019-02-19T23:29:23.994Z,41.27
2019-02-19T23:31:31.511Z,42.40
2019-02-19T23:33:39.429Z,41.97
2019-02-19T23:35:51.643Z,45.97
2019-02-19T23:37:59.458Z,45.83
2019-02-19T23:40:07.730Z,45.00
2019-02-19T23:42:15.457Z,45.40
2019-02-19T23:45:11.507Z,42.13
2019-02-19T23:46:32.989Z,42.73
2019-02-19T23:48:40.721Z,40.87
2019-02-19T23:50:48.589Z,46.50
2019-02-19T23:52:56.559Z,43.50
2019-02-19T23:55:04.217Z,37.17
2019-02-19T23:57:11.895Z,41.40
2019-02-19T23:59:19.702Z,46.37
